WXM80 ListenWXM80 Stop

You find our weather info also at:

UK Metoffice

WeatherCloud

Weather Underground

Northeastern Weather Network

AWEKAS

Citizen Weather Observer Program (CWOP)

HAMweather, WeatherForYou, PWS Weather


Weather Underground History page Text

Daily Summary for February 24, 2016 Units:  English    Metric   Both
« Previous Day
Next Day »
Daily Weekly Monthly Yearly Custom
  High: Low: Average:
Temperature: 61.5 °F 36.4 °F 47.3 °F
Dew Point: 60.0 °F 35.4 °F 46.4 °F
Humidity: 99 % 93 % 97 %
Wind Speed: 18.9 mph 0.0 mph 8.8 mph
Wind Gust: 36.8 mph - -
Wind:- - ESE
Pressure: 30.18 in 29.31 in -
Precipitation: 0.73 in    
Historical Graphs
 
 
Tabular Data for February 24, 2016
Time Temperature Dew Point Pressure Wind Wind Speed Wind Gust Humidity Rainfall Rate (Hourly)
00:01 36.4 °F 35.4 °F 30.18 in East 12.8 mph 15.0 mph 96 % 0.01 in
00:06 36.5 °F 35.5 °F 30.18 in ENE 11.1 mph 14.0 mph 96 % 0.01 in
00:11 36.5 °F 35.5 °F 30.18 in ENE 11.5 mph 12.7 mph 96 % 0.01 in
00:16 36.5 °F 35.5 °F 30.18 in ENE 12.0 mph 16.1 mph 96 % 0.01 in
00:26 36.5 °F 35.5 °F 30.18 in ENE 10.5 mph 11.5 mph 96 % 0.01 in
00:31 36.6 °F 35.6 °F 30.17 in ENE 11.9 mph 14.0 mph 96 % 0.01 in
00:36 36.6 °F 35.6 °F 30.17 in ENE 11.8 mph 13.0 mph 96 % 0.01 in
00:42 36.6 °F 35.6 °F 30.17 in ENE 11.2 mph 13.8 mph 96 % 0.01 in
00:47 36.6 °F 35.6 °F 30.17 in East 10.0 mph 13.8 mph 96 % 0.01 in
00:52 36.6 °F 35.6 °F 30.17 in East 12.3 mph 19.6 mph 96 % 0.01 in
00:57 36.6 °F 35.6 °F 30.16 in ENE 10.7 mph 13.8 mph 96 % 0.01 in
01:02 36.6 °F 35.6 °F 30.16 in ENE 11.8 mph 15.0 mph 96 % 0.01 in
01:07 36.5 °F 35.5 °F 30.16 in East 11.0 mph 17.3 mph 96 % 0.01 in
01:12 36.6 °F 35.8 °F 30.15 in ENE 12.5 mph 17.3 mph 97 % 0.01 in
01:17 36.6 °F 35.8 °F 30.14 in ENE 10.8 mph 14.0 mph 97 % 0.00 in
01:22 36.6 °F 35.8 °F 30.15 in ENE 11.3 mph 16.0 mph 97 % 0.00 in
01:27 36.5 °F 35.7 °F 30.14 in ENE 8.2 mph 12.0 mph 97 % 0.00 in
01:33 36.6 °F 35.8 °F 30.14 in East 9.3 mph 11.5 mph 97 % 0.00 in
01:38 36.6 °F 35.8 °F 30.15 in ENE 8.0 mph 10.0 mph 97 % 0.00 in
01:43 36.6 °F 35.8 °F 30.14 in ENE 8.7 mph 12.0 mph 97 % 0.01 in
01:53 36.7 °F 35.9 °F 30.14 in ENE 9.6 mph 11.5 mph 97 % 0.01 in
01:58 36.8 °F 36.0 °F 30.14 in ENE 7.7 mph 10.4 mph 97 % 0.01 in
02:03 36.8 °F 36.0 °F 30.14 in East 9.2 mph 11.5 mph 97 % 0.01 in
02:08 36.8 °F 36.0 °F 30.14 in ENE 8.9 mph 11.0 mph 97 % 0.01 in
02:13 36.9 °F 36.1 °F 30.13 in ENE 9.4 mph 15.0 mph 97 % 0.01 in
02:18 36.9 °F 36.1 °F 30.13 in East 8.2 mph 11.5 mph 97 % 0.01 in
02:24 36.9 °F 36.1 °F 30.12 in ENE 9.4 mph 11.5 mph 97 % 0.01 in
02:29 37.0 °F 36.2 °F 30.12 in ENE 9.1 mph 12.7 mph 97 % 0.01 in
02:34 37.0 °F 36.2 °F 30.12 in East 8.5 mph 11.5 mph 97 % 0.01 in
02:39 37.0 °F 36.2 °F 30.12 in ENE 8.8 mph 11.5 mph 97 % 0.00 in
02:44 37.1 °F 36.3 °F 30.11 in East 9.0 mph 11.5 mph 97 % 0.00 in
02:49 37.1 °F 36.3 °F 30.10 in ENE 10.9 mph 13.0 mph 97 % 0.00 in
02:54 37.1 °F 36.3 °F 30.10 in ENE 8.3 mph 11.5 mph 97 % 0.00 in
02:59 37.1 °F 36.3 °F 30.10 in East 8.2 mph 12.7 mph 97 % 0.00 in
03:04 37.2 °F 36.4 °F 30.10 in East 8.2 mph 11.5 mph 97 % 0.00 in
03:15 37.3 °F 36.5 °F 30.10 in East 8.4 mph 12.0 mph 97 % 0.00 in
03:20 37.3 °F 36.5 °F 30.10 in ENE 7.4 mph 13.8 mph 97 % 0.00 in
03:25 37.3 °F 36.5 °F 30.09 in ENE 9.5 mph 12.7 mph 97 % 0.00 in
03:30 37.3 °F 36.5 °F 30.08 in ENE 8.4 mph 13.8 mph 97 % 0.00 in
03:35 37.3 °F 36.5 °F 30.08 in ENE 8.0 mph 11.5 mph 97 % 0.00 in
03:40 37.3 °F 36.5 °F 30.09 in ENE 7.3 mph 10.4 mph 97 % 0.00 in
03:45 37.4 °F 36.6 °F 30.09 in ENE 9.0 mph 11.5 mph 97 % 0.00 in
03:50 37.4 °F 36.6 °F 30.09 in ENE 8.1 mph 11.0 mph 97 % 0.00 in
03:55 37.5 °F 36.7 °F 30.09 in ENE 8.1 mph 11.5 mph 97 % 0.00 in
04:01 37.6 °F 36.8 °F 30.09 in NE 8.2 mph 11.5 mph 97 % 0.00 in
04:06 37.7 °F 36.9 °F 30.09 in East 9.0 mph 11.5 mph 97 % 0.00 in
04:11 37.8 °F 37.0 °F 30.09 in ENE 8.4 mph 11.5 mph 97 % 0.00 in
04:16 37.8 °F 37.0 °F 30.08 in ENE 9.1 mph 11.5 mph 97 % 0.00 in
04:21 37.9 °F 37.1 °F 30.08 in ENE 8.2 mph 10.4 mph 97 % 0.00 in
04:26 37.9 °F 37.1 °F 30.08 in East 8.4 mph 11.5 mph 97 % 0.00 in
04:31 37.9 °F 37.1 °F 30.08 in East 9.4 mph 13.0 mph 97 % 0.00 in
04:36 38.0 °F 37.2 °F 30.07 in ENE 8.8 mph 12.7 mph 97 % 0.00 in
04:41 38.0 °F 37.2 °F 30.08 in ENE 8.1 mph 10.4 mph 97 % 0.00 in
04:46 38.0 °F 37.2 °F 30.07 in ENE 7.3 mph 11.5 mph 97 % 0.00 in
04:52 38.0 °F 37.2 °F 30.07 in East 8.1 mph 10.4 mph 97 % 0.00 in
04:57 38.0 °F 37.2 °F 30.08 in East 5.6 mph 8.1 mph 97 % 0.00 in
05:02 38.0 °F 37.2 °F 30.07 in East 7.1 mph 11.5 mph 97 % 0.01 in
05:07 38.1 °F 37.3 °F 30.07 in East 8.1 mph 11.5 mph 97 % 0.01 in
05:12 38.1 °F 37.6 °F 30.07 in East 7.7 mph 9.2 mph 98 % 0.01 in
05:17 38.1 °F 37.6 °F 30.07 in East 7.5 mph 10.4 mph 98 % 0.01 in
05:27 38.1 °F 37.6 °F 30.06 in East 8.8 mph 11.5 mph 98 % 0.01 in
05:32 38.2 °F 37.7 °F 30.06 in East 8.2 mph 10.4 mph 98 % 0.01 in
05:43 38.2 °F 37.7 °F 30.06 in East 5.9 mph 11.5 mph 98 % 0.01 in
05:48 38.2 °F 37.7 °F 30.05 in East 8.9 mph 13.0 mph 98 % 0.01 in
05:53 38.3 °F 37.8 °F 30.05 in ENE 8.3 mph 11.5 mph 98 % 0.01 in
05:58 38.3 °F 37.8 °F 30.05 in East 7.4 mph 9.2 mph 98 % 0.00 in
06:03 38.3 °F 37.8 °F 30.05 in East 7.7 mph 11.5 mph 98 % 0.00 in
06:08 38.3 °F 37.8 °F 30.05 in East 7.2 mph 9.2 mph 98 % 0.00 in
06:13 38.4 °F 37.9 °F 30.06 in ENE 5.3 mph 8.1 mph 98 % 0.00 in
06:18 38.3 °F 37.8 °F 30.06 in ENE 6.7 mph 9.2 mph 98 % 0.00 in
06:23 38.2 °F 37.7 °F 30.05 in ENE 6.2 mph 8.1 mph 98 % 0.00 in
06:34 38.1 °F 37.6 °F 30.04 in East 6.8 mph 9.2 mph 98 % 0.00 in
06:39 38.0 °F 37.5 °F 30.04 in ENE 8.2 mph 11.5 mph 98 % 0.00 in
06:44 38.0 °F 37.5 °F 30.03 in ENE 8.4 mph 13.8 mph 98 % 0.00 in
06:49 38.0 °F 37.5 °F 30.03 in ENE 7.8 mph 11.5 mph 98 % 0.00 in
06:54 37.9 °F 37.4 °F 30.04 in ENE 5.0 mph 8.1 mph 98 % 0.00 in
07:04 38.0 °F 37.5 °F 30.04 in ENE 5.3 mph 7.0 mph 98 % 0.00 in
07:09 38.2 °F 37.7 °F 30.03 in ENE 7.5 mph 11.0 mph 98 % 0.00 in
07:14 38.2 °F 37.7 °F 30.03 in ENE 6.1 mph 11.5 mph 98 % 0.00 in
07:25 38.0 °F 37.5 °F 30.03 in ENE 8.8 mph 11.5 mph 98 % 0.00 in
07:30 38.0 °F 37.5 °F 30.03 in ENE 6.8 mph 9.2 mph 98 % 0.00 in
07:35 38.0 °F 37.5 °F 30.02 in East 7.3 mph 11.5 mph 98 % 0.00 in
07:40 38.0 °F 37.5 °F 30.02 in East 7.7 mph 11.5 mph 98 % 0.00 in
07:45 38.0 °F 37.5 °F 30.02 in East 7.7 mph 11.0 mph 98 % 0.00 in
07:50 38.0 °F 37.5 °F 30.02 in East 5.6 mph 10.4 mph 98 % 0.00 in
07:55 38.1 °F 37.6 °F 30.01 in ENE 6.6 mph 9.2 mph 98 % 0.00 in
08:00 38.1 °F 37.6 °F 30.02 in ENE 5.9 mph 8.1 mph 98 % 0.00 in
08:05 38.2 °F 37.7 °F 30.01 in East 7.3 mph 10.4 mph 98 % 0.00 in
08:10 38.2 °F 37.7 °F 30.01 in East 5.7 mph 8.1 mph 98 % 0.00 in
08:16 38.2 °F 37.7 °F 30.00 in ENE 6.4 mph 9.2 mph 98 % 0.00 in
08:21 38.3 °F 37.8 °F 30.00 in East 7.2 mph 10.4 mph 98 % 0.00 in
08:26 38.4 °F 37.9 °F 30.00 in East 7.8 mph 9.2 mph 98 % 0.00 in
08:31 38.5 °F 38.0 °F 30.00 in East 6.3 mph 8.1 mph 98 % 0.00 in
08:36 38.6 °F 38.1 °F 30.00 in NE 9.0 mph 11.5 mph 98 % 0.00 in
08:41 38.8 °F 38.3 °F 29.99 in East 8.3 mph 11.5 mph 98 % 0.00 in
08:46 38.9 °F 38.4 °F 29.99 in ENE 9.4 mph 12.7 mph 98 % 0.00 in
08:56 39.0 °F 38.5 °F 29.99 in East 7.9 mph 10.4 mph 98 % 0.00 in
09:01 39.1 °F 38.6 °F 29.99 in East 8.0 mph 10.4 mph 98 % 0.00 in
09:07 39.1 °F 38.6 °F 29.99 in East 7.8 mph 9.0 mph 98 % 0.00 in
09:12 39.1 °F 38.6 °F 29.98 in ENE 7.0 mph 10.4 mph 98 % 0.00 in
09:17 39.2 °F 38.7 °F 29.98 in ENE 7.1 mph 11.5 mph 98 % 0.00 in
09:22 39.2 °F 38.7 °F 29.98 in ENE 7.3 mph 9.2 mph 98 % 0.00 in
09:27 39.3 °F 38.8 °F 29.98 in ENE 5.6 mph 8.1 mph 98 % 0.00 in
09:32 39.3 °F 38.8 °F 29.97 in East 7.3 mph 9.2 mph 98 % 0.00 in
09:37 39.4 °F 38.9 °F 29.97 in ENE 8.6 mph 10.4 mph 98 % 0.01 in
09:42 39.6 °F 39.1 °F 29.96 in ENE 7.5 mph 9.2 mph 98 % 0.01 in
09:47 39.7 °F 39.2 °F 29.96 in East 7.4 mph 8.1 mph 98 % 0.02 in
09:52 39.9 °F 39.4 °F 29.96 in East 8.2 mph 10.4 mph 98 % 0.02 in
09:58 40.0 °F 39.5 °F 29.95 in NE 8.0 mph 11.5 mph 98 % 0.02 in
10:03 40.0 °F 39.5 °F 29.94 in ENE 8.9 mph 11.5 mph 98 % 0.02 in
10:08 40.1 °F 39.6 °F 29.94 in ENE 7.4 mph 10.4 mph 98 % 0.02 in
10:13 40.1 °F 39.6 °F 29.94 in East 8.0 mph 11.5 mph 98 % 0.02 in
10:18 40.1 °F 39.6 °F 29.94 in East 7.5 mph 10.4 mph 98 % 0.02 in
10:23 40.1 °F 39.6 °F 29.93 in East 8.0 mph 11.5 mph 98 % 0.02 in
10:28 40.1 °F 39.6 °F 29.93 in ENE 7.5 mph 10.4 mph 98 % 0.02 in
10:33 40.1 °F 39.6 °F 29.93 in East 7.3 mph 11.5 mph 98 % 0.02 in
10:38 40.2 °F 39.7 °F 29.92 in East 8.1 mph 11.5 mph 98 % 0.01 in
10:43 40.2 °F 39.7 °F 29.92 in East 8.3 mph 10.4 mph 98 % 0.01 in
10:49 40.2 °F 39.7 °F 29.91 in ENE 8.8 mph 13.0 mph 98 % 0.00 in
10:54 40.2 °F 39.7 °F 29.91 in ENE 6.4 mph 10.4 mph 98 % 0.00 in
10:59 40.2 °F 39.7 °F 29.91 in ENE 8.2 mph 11.5 mph 98 % 0.00 in
11:04 40.3 °F 39.8 °F 29.90 in East 8.4 mph 10.4 mph 98 % 0.00 in
11:09 40.4 °F 39.9 °F 29.90 in East 7.6 mph 9.2 mph 98 % 0.00 in
11:14 40.4 °F 39.9 °F 29.90 in East 7.5 mph 9.2 mph 98 % 0.01 in
11:19 40.4 °F 39.9 °F 29.90 in East 8.2 mph 11.5 mph 98 % 0.01 in
11:24 40.4 °F 39.9 °F 29.89 in ENE 8.4 mph 11.5 mph 98 % 0.01 in
11:29 40.5 °F 40.0 °F 29.88 in NE 8.0 mph 12.7 mph 98 % 0.02 in
11:34 40.5 °F 40.0 °F 29.88 in ENE 6.6 mph 9.2 mph 98 % 0.02 in
11:40 40.5 °F 40.0 °F 29.87 in East 7.3 mph 12.7 mph 98 % 0.03 in
11:45 40.5 °F 40.0 °F 29.87 in ESE 7.9 mph 9.2 mph 98 % 0.04 in
11:50 40.4 °F 39.9 °F 29.87 in East 8.4 mph 12.7 mph 98 % 0.04 in
11:55 40.3 °F 39.8 °F 29.87 in East 6.6 mph 9.2 mph 98 % 0.04 in
12:00 40.3 °F 39.8 °F 29.85 in ENE 8.4 mph 10.4 mph 98 % 0.05 in
12:05 40.3 °F 39.8 °F 29.85 in East 7.9 mph 11.5 mph 98 % 0.06 in
12:15 40.3 °F 39.8 °F 29.84 in East 6.7 mph 8.1 mph 98 % 0.06 in
12:20 40.3 °F 39.8 °F 29.84 in ENE 6.3 mph 9.2 mph 98 % 0.07 in
12:25 40.2 °F 39.7 °F 29.83 in ENE 6.5 mph 10.4 mph 98 % 0.07 in
12:31 40.3 °F 39.8 °F 29.82 in ENE 7.8 mph 10.4 mph 98 % 0.06 in
12:36 40.3 °F 39.8 °F 29.82 in NE 8.3 mph 11.5 mph 98 % 0.06 in
12:41 40.2 °F 39.7 °F 29.81 in East 6.9 mph 13.8 mph 98 % 0.06 in
12:46 40.1 °F 39.6 °F 29.82 in East 7.3 mph 9.2 mph 98 % 0.06 in
12:51 40.0 °F 39.5 °F 29.80 in East 6.9 mph 9.2 mph 98 % 0.06 in
12:56 40.0 °F 39.5 °F 29.80 in East 6.8 mph 9.2 mph 98 % 0.07 in
13:01 40.0 °F 39.5 °F 29.80 in East 7.0 mph 10.4 mph 98 % 0.06 in
13:06 40.1 °F 39.6 °F 29.79 in East 4.0 mph 6.0 mph 98 % 0.09 in
13:11 40.1 °F 39.6 °F 29.79 in ENE 5.6 mph 7.0 mph 98 % 0.12 in
13:16 40.2 °F 39.7 °F 29.78 in East 6.4 mph 13.8 mph 98 % 0.12 in
13:22 40.3 °F 39.8 °F 29.77 in East 6.3 mph 8.1 mph 98 % 0.11 in
13:27 40.4 °F 39.9 °F 29.77 in ESE 4.6 mph 6.9 mph 98 % 0.12 in
13:32 40.5 °F 40.0 °F 29.77 in ENE 5.7 mph 9.2 mph 98 % 0.11 in
13:37 40.8 °F 40.3 °F 29.77 in East 5.5 mph 6.9 mph 98 % 0.12 in
13:42 41.2 °F 40.7 °F 29.76 in East 3.3 mph 5.0 mph 98 % 0.12 in
13:47 41.4 °F 40.9 °F 29.75 in East 1.6 mph 2.3 mph 98 % 0.13 in
13:52 41.7 °F 41.2 °F 29.74 in NE 0.2 mph 1.2 mph 98 % 0.14 in
14:02 42.4 °F 41.9 °F 29.74 in Calm   1.2 mph 98 % 0.14 in
14:07 42.9 °F 42.4 °F 29.73 in NE 1.5 mph 3.0 mph 98 % 0.11 in
14:13 43.6 °F 43.1 °F 29.73 in NE 0.4 mph 2.3 mph 98 % 0.10 in
14:18 44.7 °F 44.2 °F 29.72 in SSW 1.5 mph 4.6 mph 98 % 0.11 in
14:23 47.6 °F 47.3 °F 29.72 in SSE 2.6 mph 10.4 mph 99 % 0.13 in
14:33 53.7 °F 53.4 °F 29.71 in South 7.5 mph 16.0 mph 99 % 0.15 in
14:38 55.5 °F 55.2 °F 29.71 in SE 4.9 mph 9.0 mph 99 % 0.15 in
14:43 56.7 °F 56.4 °F 29.70 in South 7.1 mph 11.5 mph 99 % 0.16 in
14:48 57.5 °F 57.2 °F 29.70 in SSW 7.7 mph 16.0 mph 99 % 0.17 in
14:53 58.2 °F 57.9 °F 29.70 in South 7.3 mph 10.4 mph 99 % 0.18 in
14:58 58.6 °F 58.3 °F 29.70 in South 8.9 mph 13.0 mph 99 % 0.19 in
15:04 58.7 °F 58.4 °F 29.70 in SW 9.6 mph 9.6 mph 99 % 0.21 in
15:09 58.8 °F 58.5 °F 29.69 in SSW 8.6 mph 12.7 mph 99 % 0.22 in
15:14 59.0 °F 58.7 °F 29.69 in SSW 5.8 mph 11.5 mph 99 % 0.23 in
15:19 59.2 °F 58.9 °F 29.69 in WSW 10.5 mph 17.3 mph 99 % 0.24 in
15:24 59.3 °F 59.0 °F 29.68 in South 5.0 mph 9.2 mph 99 % 0.25 in
15:29 59.5 °F 59.2 °F 29.68 in South 7.9 mph 12.0 mph 99 % 0.26 in
15:34 59.5 °F 59.2 °F 29.67 in South 6.5 mph 11.5 mph 99 % 0.26 in
15:39 59.5 °F 59.2 °F 29.67 in South 6.8 mph 11.5 mph 99 % 0.26 in
15:44 59.6 °F 59.3 °F 29.67 in SSW 8.5 mph 12.7 mph 99 % 0.25 in
15:49 59.7 °F 59.4 °F 29.66 in SSW 8.6 mph 18.4 mph 99 % 0.23 in
15:55 59.8 °F 59.5 °F 29.66 in South 10.4 mph 17.0 mph 99 % 0.21 in
16:00 59.8 °F 59.5 °F 29.66 in SSW 7.6 mph 15.0 mph 99 % 0.19 in
16:05 59.8 °F 59.5 °F 29.66 in SSW 10.1 mph 15.0 mph 99 % 0.17 in
16:10 59.9 °F 59.6 °F 29.65 in SSW 7.6 mph 11.5 mph 99 % 0.14 in
16:15 59.9 °F 59.6 °F 29.65 in SSE 9.9 mph 17.3 mph 99 % 0.11 in
16:20 59.9 °F 59.6 °F 29.64 in ESE 7.4 mph 24.2 mph 99 % 0.09 in
16:25 60.0 °F 59.7 °F 29.64 in SSW 7.2 mph 9.2 mph 99 % 0.07 in
16:30 60.0 °F 59.7 °F 29.64 in SSW 7.3 mph 10.4 mph 99 % 0.05 in
16:35 60.0 °F 59.7 °F 29.63 in SSE 11.0 mph 21.9 mph 99 % 0.04 in
16:41 60.1 °F 59.8 °F 29.63 in SSE 7.2 mph 19.6 mph 99 % 0.03 in
16:46 60.3 °F 60.0 °F 29.63 in SE 10.0 mph 28.8 mph 99 % 0.02 in
16:51 60.2 °F 59.9 °F 29.63 in South 7.1 mph 18.4 mph 99 % 0.02 in
16:56 60.1 °F 59.8 °F 29.62 in South 7.3 mph 19.6 mph 99 % 0.02 in
17:01 60.0 °F 59.7 °F 29.62 in SSW 10.1 mph 18.4 mph 99 % 0.02 in
17:06 60.1 °F 59.5 °F 29.61 in SSE 4.8 mph 11.5 mph 98 % 0.02 in
17:11 60.2 °F 59.6 °F 29.61 in SSW 8.4 mph 24.2 mph 98 % 0.02 in
17:16 60.1 °F 59.5 °F 29.60 in South 7.8 mph 20.7 mph 98 % 0.02 in
17:21 60.0 °F 59.1 °F 29.60 in SSW 8.8 mph 12.0 mph 97 % 0.01 in
17:26 60.0 °F 59.1 °F 29.60 in South 9.0 mph 19.6 mph 97 % 0.01 in
17:32 60.0 °F 59.1 °F 29.61 in SSW 8.4 mph 23.0 mph 97 % 0.00 in
17:37 59.9 °F 58.8 °F 29.60 in SSW 9.7 mph 21.0 mph 96 % 0.00 in
17:42 59.8 °F 58.7 °F 29.61 in South 9.8 mph 21.9 mph 96 % 0.00 in
17:47 59.7 °F 58.6 °F 29.59 in SSE 7.9 mph 12.7 mph 96 % 0.00 in
17:52 59.6 °F 58.5 °F 29.60 in SSE 13.0 mph 26.5 mph 96 % 0.00 in
18:02 60.0 °F 58.9 °F 29.59 in SE 13.1 mph 20.7 mph 96 % 0.00 in
18:07 60.5 °F 59.4 °F 29.59 in SSW 12.2 mph 19.6 mph 96 % 0.00 in
18:12 60.9 °F 59.8 °F 29.59 in SE 10.0 mph 25.3 mph 96 % 0.00 in
18:17 61.0 °F 59.6 °F 29.58 in SSE 13.6 mph 19.6 mph 95 % 0.00 in
18:23 60.9 °F 59.5 °F 29.57 in SSW 11.9 mph 21.9 mph 95 % 0.00 in
18:28 60.9 °F 59.5 °F 29.57 in SE 14.8 mph 22.0 mph 95 % 0.00 in
18:33 60.8 °F 59.4 °F 29.57 in SSE 10.6 mph 20.7 mph 95 % 0.00 in
18:38 60.9 °F 59.5 °F 29.56 in South 8.5 mph 18.4 mph 95 % 0.00 in
18:43 60.9 °F 59.5 °F 29.56 in South 8.9 mph 13.8 mph 95 % 0.00 in
18:48 60.9 °F 59.5 °F 29.56 in SSE 12.8 mph 20.7 mph 95 % 0.00 in
18:53 61.0 °F 59.6 °F 29.56 in SSE 12.1 mph 19.6 mph 95 % 0.00 in
18:58 61.1 °F 59.7 °F 29.56 in SSE 12.8 mph 24.2 mph 95 % 0.00 in
19:03 61.1 °F 59.7 °F 29.55 in South 10.6 mph 24.2 mph 95 % 0.00 in
19:08 61.2 °F 59.8 °F 29.55 in SSW 8.4 mph 24.2 mph 95 % 0.00 in
19:14 61.1 °F 59.4 °F 29.55 in SSE 11.4 mph 19.6 mph 94 % 0.00 in
19:19 61.1 °F 59.4 °F 29.55 in SSW 9.1 mph 29.9 mph 94 % 0.00 in
19:24 61.1 °F 59.4 °F 29.55 in South 10.3 mph 24.0 mph 94 % 0.00 in
19:29 61.2 °F 59.5 °F 29.55 in SSE 14.1 mph 23.0 mph 94 % 0.00 in
19:34 61.1 °F 59.4 °F 29.55 in South 10.1 mph 21.9 mph 94 % 0.00 in
19:39 61.1 °F 59.4 °F 29.53 in SSW 13.2 mph 32.2 mph 94 % 0.00 in
19:44 61.2 °F 59.5 °F 29.53 in SE 18.9 mph 24.2 mph 94 % 0.00 in
19:54 61.5 °F 59.5 °F 29.51 in South 10.3 mph 15.0 mph 93 % 0.00 in
19:59 61.4 °F 59.4 °F 29.51 in South 11.2 mph 19.0 mph 93 % 0.00 in
20:10 60.9 °F 58.9 °F 29.50 in South 9.5 mph 23.0 mph 93 % 0.00 in
20:20 60.7 °F 59.0 °F 29.49 in SSE 10.6 mph 19.6 mph 94 % 0.00 in
20:30 60.7 °F 59.0 °F 29.48 in SSW 12.3 mph 34.5 mph 94 % 0.00 in
20:35 60.7 °F 59.0 °F 29.48 in SSE 10.0 mph 21.9 mph 94 % 0.00 in
20:40 60.7 °F 59.0 °F 29.48 in SSW 10.4 mph 21.0 mph 94 % 0.00 in
20:45 60.7 °F 59.0 °F 29.48 in SE 10.8 mph 20.7 mph 94 % 0.00 in
20:50 60.7 °F 59.0 °F 29.48 in South 13.3 mph 24.2 mph 94 % 0.00 in
20:56 60.7 °F 59.0 °F 29.47 in South 8.7 mph 21.9 mph 94 % 0.00 in
21:01 60.8 °F 59.1 °F 29.47 in ESE 12.9 mph 23.0 mph 94 % 0.00 in
21:06 60.9 °F 59.2 °F 29.48 in SSE 12.7 mph 25.3 mph 94 % 0.00 in
21:11 61.0 °F 59.3 °F 29.47 in South 11.5 mph 20.7 mph 94 % 0.00 in
21:16 60.9 °F 58.9 °F 29.47 in SSE 7.8 mph 28.8 mph 93 % 0.00 in
21:21 60.8 °F 58.8 °F 29.45 in SSE 10.4 mph 16.1 mph 93 % 0.00 in
21:26 61.0 °F 59.3 °F 29.45 in SE 12.5 mph 22.0 mph 94 % 0.00 in
21:31 61.2 °F 59.5 °F 29.45 in SSW 14.4 mph 36.8 mph 94 % 0.00 in
21:36 61.2 °F 59.5 °F 29.45 in SE 13.5 mph 26.0 mph 94 % 0.00 in
21:41 61.1 °F 59.4 °F 29.44 in SSE 9.3 mph 24.2 mph 94 % 0.01 in
21:47 60.9 °F 59.5 °F 29.43 in SE 11.0 mph 26.5 mph 95 % 0.01 in
21:52 60.7 °F 59.3 °F 29.42 in SE 14.9 mph 26.5 mph 95 % 0.01 in
21:57 60.9 °F 59.5 °F 29.42 in SSW 9.7 mph 18.4 mph 95 % 0.01 in
22:02 60.9 °F 59.5 °F 29.41 in South 11.8 mph 17.3 mph 95 % 0.01 in
22:07 61.1 °F 59.7 °F 29.41 in South 12.9 mph 25.3 mph 95 % 0.01 in
22:12 61.0 °F 59.6 °F 29.41 in SE 11.6 mph 24.2 mph 95 % 0.01 in
22:17 60.9 °F 59.2 °F 29.39 in South 11.9 mph 20.7 mph 94 % 0.01 in
22:22 60.8 °F 59.4 °F 29.39 in SSW 14.1 mph 25.3 mph 95 % 0.01 in
22:27 60.9 °F 59.5 °F 29.38 in SSE 8.6 mph 25.3 mph 95 % 0.01 in
22:32 61.0 °F 59.3 °F 29.38 in South 8.8 mph 20.7 mph 94 % 0.01 in
22:38 60.9 °F 59.2 °F 29.38 in ESE 11.4 mph 21.9 mph 94 % 0.00 in
22:48 60.8 °F 59.1 °F 29.37 in SSE 18.9 mph 34.5 mph 94 % 0.00 in
22:53 60.9 °F 59.2 °F 29.36 in South 8.9 mph 26.5 mph 94 % 0.00 in
22:58 60.6 °F 58.6 °F 29.36 in WSW 17.8 mph 31.1 mph 93 % 0.00 in
23:08 60.4 °F 58.7 °F 29.35 in SSE 12.1 mph 20.7 mph 94 % 0.01 in
23:13 60.6 °F 58.9 °F 29.34 in SSE 13.0 mph 26.5 mph 94 % 0.01 in
23:18 60.7 °F 59.0 °F 29.33 in SSW 13.5 mph 17.3 mph 94 % 0.01 in
23:23 60.9 °F 59.2 °F 29.33 in South 11.2 mph 23.0 mph 94 % 0.01 in
23:29 60.8 °F 59.1 °F 29.33 in SSW 10.4 mph 20.7 mph 94 % 0.01 in
23:34 60.9 °F 59.2 °F 29.32 in SSE 10.4 mph 24.2 mph 94 % 0.01 in
23:39 60.9 °F 59.2 °F 29.32 in ESE 12.6 mph 26.5 mph 94 % 0.01 in
23:44 60.8 °F 59.1 °F 29.32 in South 13.9 mph 24.0 mph 94 % 0.01 in
23:49 60.8 °F 59.1 °F 29.31 in SSW 15.8 mph 26.5 mph 94 % 0.01 in
23:54 61.0 °F 59.3 °F 29.31 in South 15.2 mph 27.6 mph 94 % 0.01 in
23:59 61.4 °F 59.7 °F 29.31 in SSE 17.5 mph 24.0 mph 94 % 0.01 in
Crab Meadow Weather
Compliments of Weather Underground - 2.75 mb

Script developed by  Jim McMurry - jmcmurry@mwt.net Adapted for the template by  Wim van der Kuil - Leuven-Template.eu

Astronomy: The rings of Saturn are made of ice and rock.